Accueil
METAR-TAF:

METAR-TAF

Aéroports :

Pérouse, Italie

Aéroport de Pérouse-Sant'Egidio

latitude: 43-05N, longitude: 012-30E, altitude: 208 m

Observation

Le bulletin a été fait il y a 28 minutes, à 21:50 UTC
Vent 2 kt de direction variable
Température 9°C
Humidité 100%
Pression 1021 hPa
Visibilité 10 km ou plus
pas de nuages en-dessous de 1500 mètres et pas de cumulonimbus.

METAR: LIRZ 242150Z VRB02KT CAVOK 09/09 Q1021

Heure: 23:18 (22:18 UTC)

Prévision

Le bulletin a été fait il y a 5 heures et 18 minutes, à 17:00 UTC
Prévision valable du 24 à 18 UTC au 25 à 18 UTC
Vent 5 kt de direction variable
Visibilité: 8000 m
Nuages fragmentés à une hauteur de 3000 ft
Evoluant progressivement
du 25 à 11 UTC au 25 à 13 UTC
Vent 12 kt de sud-ouest

TAF: LIRZ 241700Z 2418/2518 VRB05KT 8000 BKN030 BECMG 2511/2513 22012KT

Observations et prévisions météorologiques de plus de 4000 aéroports (messages METAR et TAF).

Les stations disponibles sont représentées par des disques jaunes et rouges sur la carte.

Passer la souris dessus pour voir le nom de la station.

Cliquer dessus pour voir les observations et prévisions météorologiques.

Pour changer de carte: cliquez sur les boutons verts avec une croix noire pour zoomer, sur le bouton vert avec un tiret pour effectuer un zoom arrière, ou sur les flèches vertes pour les cartes adjacentes.


METAR-TAF: